createdAt,value
2018-05-23T00:00:01.461Z,16.36
2018-05-23T00:02:32.800Z,16.24
2018-05-23T00:05:04.319Z,16.44
2018-05-23T00:07:35.516Z,16.48
2018-05-23T00:10:06.779Z,16.35
2018-05-23T00:12:37.853Z,16.25
2018-05-23T00:15:12.201Z,16.13
2018-05-23T00:17:43.458Z,16.25
2018-05-23T00:20:14.703Z,16.26
2018-05-23T00:22:45.926Z,16.31
2018-05-23T00:25:17.556Z,16.04
2018-05-23T00:27:48.796Z,16.19
2018-05-23T00:30:20.011Z,15.93
2018-05-23T00:32:51.374Z,16.16
2018-05-23T00:35:22.547Z,16.17
2018-05-23T00:37:53.894Z,16.10
2018-05-23T00:40:25.457Z,16.10
2018-05-23T00:42:56.888Z,16.03
2018-05-23T00:45:28.136Z,16.05
2018-05-23T00:47:59.345Z,16.00
2018-05-23T00:50:31.121Z,15.83
2018-05-23T00:53:03.025Z,15.92
2018-05-23T00:55:37.028Z,15.85
2018-05-23T00:58:09.985Z,15.96
2018-05-23T01:00:41.282Z,15.88
2018-05-23T01:03:12.385Z,15.86
2018-05-23T01:05:43.745Z,15.88
2018-05-23T01:08:14.844Z,15.83
2018-05-23T01:10:46.174Z,15.69
2018-05-23T01:13:17.325Z,15.52
2018-05-23T01:15:49.083Z,15.37
2018-05-23T01:18:20.285Z,15.55
2018-05-23T01:20:51.923Z,15.64
2018-05-23T01:23:23.229Z,15.59
2018-05-23T01:25:55.439Z,15.58
2018-05-23T01:28:26.873Z,15.56
2018-05-23T01:30:58.644Z,15.54
2018-05-23T01:33:30.120Z,15.45
2018-05-23T01:36:01.950Z,15.53
2018-05-23T01:38:33.244Z,15.44
2018-05-23T01:41:04.759Z,15.36
2018-05-23T01:43:36.023Z,15.15
2018-05-23T01:46:07.428Z,14.37
2018-05-23T01:48:47.089Z,14.34
2018-05-23T01:51:18.304Z,15.07
2018-05-23T01:53:49.547Z,15.31
2018-05-23T01:56:20.764Z,15.24
2018-05-23T01:58:52.350Z,15.24
2018-05-23T02:01:23.842Z,15.04
2018-05-23T02:03:54.988Z,15.03
2018-05-23T02:06:27.003Z,15.14
2018-05-23T02:08:59.307Z,14.99
2018-05-23T02:11:32.895Z,14.97
2018-05-23T02:14:04.276Z,14.98
2018-05-23T02:16:35.403Z,14.92
2018-05-23T02:19:06.504Z,15.01
2018-05-23T02:21:37.738Z,15.06
2018-05-23T02:24:08.867Z,15.04
2018-05-23T02:26:39.953Z,15.02
2018-05-23T02:29:11.092Z,15.02
2018-05-23T02:31:42.230Z,14.98
2018-05-23T02:34:13.297Z,15.03
2018-05-23T02:36:45.220Z,15.01
2018-05-23T02:39:16.490Z,14.99
2018-05-23T02:41:47.695Z,14.84
2018-05-23T02:44:18.870Z,14.86
2018-05-23T02:46:50.055Z,14.84
2018-05-23T02:49:21.088Z,14.87
2018-05-23T02:51:52.825Z,14.99
2018-05-23T02:54:23.992Z,14.89
2018-05-23T02:56:55.663Z,14.74
2018-05-23T02:59:26.860Z,14.33
2018-05-23T03:01:58.568Z,14.31
2018-05-23T03:04:29.781Z,14.51
2018-05-23T03:07:01.214Z,13.42
2018-05-23T03:09:32.395Z,13.84
2018-05-23T03:12:04.677Z,14.44
2018-05-23T03:14:36.090Z,14.36
2018-05-23T03:17:07.626Z,13.87
2018-05-23T03:19:38.774Z,13.48
2018-05-23T03:22:10.059Z,13.87
2018-05-23T03:24:41.201Z,14.45
2018-05-23T03:27:12.458Z,14.43
2018-05-23T03:29:43.652Z,14.71
2018-05-23T03:32:15.248Z,14.75
2018-05-23T03:34:46.412Z,14.82
2018-05-23T03:37:18.192Z,14.79
2018-05-23T03:39:49.592Z,14.44
2018-05-23T03:42:21.023Z,14.75
2018-05-23T03:44:52.346Z,14.91
2018-05-23T03:47:23.537Z,14.81
2018-05-23T03:49:54.752Z,14.77
2018-05-23T03:52:25.969Z,14.86
2018-05-23T03:54:57.184Z,14.96
2018-05-23T03:57:28.505Z,15.02
2018-05-23T04:02:08.739Z,15.04
2018-05-23T04:04:50.622Z,15.09
2018-05-23T04:07:24.565Z,15.15
2018-05-23T04:09:56.170Z,15.14
2018-05-23T04:12:27.298Z,15.12
2018-05-23T04:14:58.693Z,15.04
2018-05-23T04:17:29.985Z,15.08
2018-05-23T04:20:01.456Z,15.14
2018-05-23T04:22:32.707Z,15.26
2018-05-23T04:25:07.125Z,15.35
2018-05-23T04:27:38.328Z,15.41
2018-05-23T04:30:09.601Z,15.49
2018-05-23T04:32:40.728Z,15.54
2018-05-23T04:35:12.214Z,15.63
2018-05-23T04:37:43.529Z,15.71
2018-05-23T04:40:18.042Z,15.81
2018-05-23T04:42:49.436Z,15.81
2018-05-23T04:45:20.772Z,15.77
2018-05-23T04:47:52.323Z,15.94
2018-05-23T04:50:23.700Z,15.31
2018-05-23T04:52:56.073Z,15.25
2018-05-23T04:55:28.937Z,15.47
2018-05-23T04:58:00.147Z,16.06
2018-05-23T05:00:31.877Z,16.19
2018-05-23T05:03:04.274Z,16.20
2018-05-23T05:05:35.782Z,16.51
2018-05-23T05:08:09.355Z,16.52
2018-05-23T05:10:41.016Z,16.83
2018-05-23T05:13:13.093Z,16.61
2018-05-23T05:15:44.356Z,16.60
2018-05-23T05:18:15.527Z,16.67
2018-05-23T05:20:46.841Z,16.78
2018-05-23T05:23:18.058Z,16.59
2018-05-23T05:25:49.575Z,16.64
2018-05-23T05:28:21.401Z,16.80
2018-05-23T05:30:53.097Z,16.86
2018-05-23T05:33:24.168Z,16.93
2018-05-23T05:35:55.525Z,16.52
2018-05-23T05:38:26.933Z,16.75
2018-05-23T05:40:58.069Z,16.74
2018-05-23T05:43:29.370Z,16.90
2018-05-23T05:46:01.140Z,16.87
2018-05-23T05:48:32.380Z,17.21
2018-05-23T05:51:04.183Z,17.50
2018-05-23T05:53:35.827Z,17.54
2018-05-23T05:56:07.318Z,17.25
2018-05-23T05:58:38.660Z,17.48
2018-05-23T06:01:10.204Z,17.41
2018-05-23T06:03:41.363Z,17.21
2018-05-23T06:06:12.748Z,17.56
2018-05-23T06:08:44.018Z,17.53
2018-05-23T06:11:15.640Z,17.64
2018-05-23T06:13:46.911Z,17.57
2018-05-23T06:16:19.409Z,17.94
2018-05-23T06:18:50.638Z,17.88
2018-05-23T06:21:22.019Z,18.24
2018-05-23T06:23:53.251Z,17.91
2018-05-23T06:26:25.420Z,18.22
2018-05-23T06:28:57.553Z,18.16
2018-05-23T06:31:29.106Z,17.99
2018-05-23T06:34:00.545Z,17.96
2018-05-23T06:36:32.644Z,17.98
2018-05-23T06:39:04.412Z,18.20
2018-05-23T06:41:36.636Z,18.21
2018-05-23T06:44:07.762Z,18.16
2018-05-23T06:46:38.922Z,18.11
2018-05-23T06:49:10.419Z,18.50
2018-05-23T06:51:41.661Z,18.73
2018-05-23T06:54:12.877Z,18.72
2018-05-23T06:56:44.294Z,18.51
2018-05-23T06:59:15.484Z,18.49
2018-05-23T07:01:46.847Z,18.29
2018-05-23T07:04:18.168Z,18.29
2018-05-23T07:06:49.643Z,18.53
2018-05-23T07:09:21.300Z,18.86
2018-05-23T07:11:53.316Z,18.76
2018-05-23T07:14:24.750Z,18.85
2018-05-23T07:16:56.251Z,19.00
2018-05-23T07:19:27.711Z,18.84
2018-05-23T07:22:02.420Z,18.81
2018-05-23T07:24:33.524Z,18.79
2018-05-23T07:27:06.238Z,18.74
2018-05-23T07:29:37.834Z,18.91
2018-05-23T07:32:11.317Z,18.79
2018-05-23T07:34:42.744Z,18.78
2018-05-23T07:37:14.466Z,18.87
2018-05-23T07:39:45.818Z,18.84
2018-05-23T07:42:17.542Z,18.88
2018-05-23T07:44:48.727Z,18.98
2018-05-23T07:47:19.883Z,18.58
2018-05-23T07:49:51.155Z,18.62
2018-05-23T07:52:22.605Z,18.75
2018-05-23T07:54:55.216Z,18.52
2018-05-23T07:57:27.001Z,18.53
2018-05-23T07:59:59.757Z,18.68
2018-05-23T08:02:31.349Z,18.70
2018-05-23T08:05:02.569Z,18.80
2018-05-23T08:07:33.918Z,18.61
2018-05-23T08:10:05.503Z,18.62
2018-05-23T08:12:37.275Z,18.95
2018-05-23T08:15:09.674Z,19.03
2018-05-23T08:17:42.010Z,18.88
2018-05-23T08:20:13.183Z,18.91
2018-05-23T08:22:44.574Z,19.02
2018-05-23T08:25:18.045Z,19.07
2018-05-23T08:27:49.982Z,19.06
2018-05-23T08:30:21.397Z,18.94
2018-05-23T08:32:55.475Z,19.08
2018-05-23T08:35:30.269Z,19.27
2018-05-23T08:38:03.300Z,19.36
2018-05-23T08:40:35.838Z,19.44
2018-05-23T08:43:08.140Z,19.47
2018-05-23T08:45:39.276Z,19.48
2018-05-23T08:48:13.537Z,19.68
2018-05-23T08:50:45.338Z,19.69
2018-05-23T08:53:16.830Z,19.75
2018-05-23T08:55:48.101Z,19.55
2018-05-23T08:58:19.291Z,19.67
2018-05-23T09:00:50.650Z,19.76
2018-05-23T09:03:21.859Z,19.10
2018-05-23T09:05:52.985Z,19.27
2018-05-23T09:08:24.505Z,19.43
2018-05-23T09:10:55.758Z,19.26
2018-05-23T09:13:27.283Z,19.27
2018-05-23T09:15:58.989Z,19.55
2018-05-23T09:18:30.379Z,19.87
2018-05-23T09:21:01.719Z,19.78
2018-05-23T09:23:33.078Z,19.79
2018-05-23T09:26:04.197Z,20.06
2018-05-23T09:28:35.565Z,20.35
2018-05-23T09:31:06.630Z,20.51
2018-05-23T09:33:37.941Z,20.55
2018-05-23T09:36:09.146Z,20.60
2018-05-23T09:38:40.404Z,20.20
2018-05-23T09:41:12.762Z,20.70
2018-05-23T09:43:44.213Z,21.13
2018-05-23T09:46:15.366Z,21.17
2018-05-23T09:48:46.940Z,21.33
2018-05-23T09:51:18.306Z,21.50
2018-05-23T09:53:49.678Z,21.77
2018-05-23T09:56:20.866Z,22.16
2018-05-23T09:58:52.252Z,21.67
2018-05-23T10:01:23.526Z,21.63
2018-05-23T10:03:55.017Z,21.79
2018-05-23T10:06:26.287Z,21.70
2018-05-23T10:08:57.657Z,21.87
2018-05-23T10:11:28.944Z,21.98
2018-05-23T10:14:00.381Z,21.87
2018-05-23T10:16:31.770Z,22.01
2018-05-23T10:19:03.046Z,21.87
2018-05-23T10:21:34.317Z,21.64
2018-05-23T10:24:05.606Z,21.55
2018-05-23T10:26:36.944Z,22.09
2018-05-23T10:29:08.553Z,22.34
2018-05-23T10:31:39.833Z,22.41
2018-05-23T10:34:10.952Z,22.35
2018-05-23T10:36:42.216Z,22.46
2018-05-23T10:39:13.727Z,22.15
2018-05-23T10:41:45.182Z,22.43
2018-05-23T10:44:17.693Z,22.06
2018-05-23T10:46:49.448Z,21.96
2018-05-23T10:49:21.624Z,22.22
2018-05-23T10:51:52.829Z,22.26
2018-05-23T10:54:24.309Z,22.11
2018-05-23T10:56:55.505Z,21.60
2018-05-23T10:59:26.957Z,21.58
2018-05-23T11:01:58.201Z,21.77
2018-05-23T11:04:29.553Z,21.98
2018-05-23T11:07:00.929Z,22.28
2018-05-23T11:09:32.500Z,22.21
2018-05-23T11:12:05.012Z,22.29
2018-05-23T11:14:37.006Z,22.39
2018-05-23T11:17:08.734Z,22.49
2018-05-23T11:19:41.087Z,22.67
2018-05-23T11:22:12.856Z,23.05
2018-05-23T11:24:44.125Z,23.12
2018-05-23T11:27:15.372Z,23.42
2018-05-23T11:29:47.008Z,22.57
2018-05-23T11:32:19.389Z,22.78
2018-05-23T11:34:51.233Z,23.18
2018-05-23T11:37:24.617Z,23.19
2018-05-23T11:39:57.104Z,23.24
2018-05-23T11:42:28.553Z,22.92
2018-05-23T11:45:00.435Z,22.60
2018-05-23T11:47:32.395Z,22.61
2018-05-23T11:50:05.101Z,22.91
2018-05-23T11:52:36.864Z,22.45
2018-05-23T11:55:11.441Z,22.71
2018-05-23T11:57:43.018Z,22.80
2018-05-23T12:00:14.812Z,22.39
2018-05-23T12:02:46.872Z,22.43
2018-05-23T12:05:18.130Z,22.65
2018-05-23T12:07:49.967Z,23.00
2018-05-23T12:10:21.840Z,23.18
2018-05-23T12:12:53.461Z,23.24
2018-05-23T12:15:26.351Z,23.34
2018-05-23T12:17:59.519Z,23.35
2018-05-23T12:20:35.311Z,23.11
2018-05-23T12:23:07.376Z,23.18
2018-05-23T12:25:40.547Z,22.45
2018-05-23T12:28:12.528Z,22.74
2018-05-23T12:30:44.416Z,22.99
2018-05-23T12:33:15.993Z,23.23
2018-05-23T12:35:47.421Z,23.49
2018-05-23T12:38:19.071Z,23.50
2018-05-23T12:40:50.753Z,23.19
2018-05-23T12:43:23.528Z,22.97
2018-05-23T12:45:54.794Z,22.78
2018-05-23T12:48:26.507Z,22.75
2018-05-23T12:50:57.894Z,22.73
2018-05-23T12:53:29.527Z,22.60
2018-05-23T12:56:00.984Z,22.50
2018-05-23T12:58:32.334Z,22.41
2018-05-23T13:01:03.964Z,22.38
2018-05-23T13:03:40.569Z,22.35
2018-05-23T13:06:12.021Z,22.33
2018-05-23T13:08:43.381Z,22.20
2018-05-23T13:11:14.583Z,22.17
2018-05-23T13:13:46.400Z,21.96
2018-05-23T13:16:18.436Z,21.72
2018-05-23T13:18:50.616Z,21.40
2018-05-23T13:21:22.793Z,21.25
2018-05-23T13:23:54.147Z,21.33
2018-05-23T13:26:25.432Z,20.98
2018-05-23T13:28:57.420Z,20.97
2018-05-23T13:31:29.714Z,20.77
2018-05-23T13:34:02.569Z,20.73
2018-05-23T13:36:33.937Z,20.64
2018-05-23T13:39:05.921Z,20.00
2018-05-23T13:41:37.474Z,19.82
2018-05-23T13:44:08.905Z,19.74
2018-05-23T13:46:40.326Z,19.16
2018-05-23T13:49:11.859Z,19.09
2018-05-23T13:51:43.349Z,18.90
2018-05-23T13:54:14.810Z,18.89
2018-05-23T13:56:46.027Z,18.61
2018-05-23T13:59:17.384Z,18.52
2018-05-23T14:01:48.613Z,18.39
2018-05-23T14:04:19.765Z,18.82
2018-05-23T14:06:52.100Z,18.83
2018-05-23T14:09:23.392Z,18.48
2018-05-23T14:11:54.597Z,18.59
2018-05-23T14:14:26.000Z,18.81
2018-05-23T14:16:57.452Z,18.88
2018-05-23T14:19:28.749Z,18.95
2018-05-23T14:21:59.936Z,18.80
2018-05-23T14:24:31.697Z,19.18
2018-05-23T14:27:02.969Z,19.49
2018-05-23T14:29:34.376Z,18.82
2018-05-23T14:32:05.729Z,19.06
2018-05-23T14:34:36.970Z,18.72
2018-05-23T14:37:08.517Z,18.86
2018-05-23T14:39:39.831Z,18.74
2018-05-23T14:42:11.245Z,18.91
2018-05-23T14:44:42.754Z,18.46
2018-05-23T14:47:14.260Z,18.63
2018-05-23T14:49:45.703Z,18.79
2018-05-23T14:52:17.072Z,18.99
2018-05-23T14:54:48.356Z,19.05
2018-05-23T14:57:20.447Z,19.11
2018-05-23T14:59:53.761Z,18.92
2018-05-23T15:02:27.613Z,19.07
2018-05-23T15:05:06.970Z,19.28
2018-05-23T15:07:40.370Z,19.13
2018-05-23T15:10:15.633Z,19.26
2018-05-23T15:12:48.510Z,18.95
2018-05-23T15:15:21.960Z,18.61
2018-05-23T15:17:55.340Z,19.00
2018-05-23T15:20:31.987Z,18.50
2018-05-23T15:23:06.570Z,18.85
2018-05-23T15:25:38.926Z,18.55
2018-05-23T15:28:19.719Z,19.03
2018-05-23T15:30:53.731Z,18.54
2018-05-23T15:33:29.995Z,18.57
2018-05-23T15:36:04.623Z,18.74
2018-05-23T15:38:39.364Z,18.90
2018-05-23T15:41:13.488Z,19.18
2018-05-23T15:43:49.134Z,19.17
2018-05-23T15:46:27.333Z,18.88
2018-05-23T15:49:00.721Z,18.58
2018-05-23T15:51:34.408Z,18.85
2018-05-23T15:54:09.662Z,19.12
2018-05-23T15:56:43.122Z,18.96
2018-05-23T15:59:19.594Z,18.79
2018-05-23T16:01:53.650Z,18.78
2018-05-23T16:04:28.321Z,18.83
2018-05-23T16:07:02.781Z,19.26
2018-05-23T16:09:38.385Z,19.60
2018-05-23T16:12:13.391Z,18.97
2018-05-23T16:14:48.916Z,18.54
2018-05-23T16:17:22.564Z,19.12
2018-05-23T16:20:04.830Z,19.36
2018-05-23T16:22:48.894Z,19.03
2018-05-23T16:25:21.592Z,18.94
2018-05-23T16:27:58.458Z,18.90
2018-05-23T16:30:33.668Z,18.92
2018-05-23T16:33:07.179Z,18.66
2018-05-23T16:35:41.174Z,18.77
2018-05-23T16:38:15.078Z,19.01
2018-05-23T16:40:49.841Z,18.48
2018-05-23T16:43:22.536Z,18.14
2018-05-23T16:45:56.333Z,18.07
2018-05-23T16:48:29.550Z,18.64
2018-05-23T16:51:03.022Z,18.39
2018-05-23T16:53:35.346Z,18.79
2018-05-23T16:56:09.732Z,18.25
2018-05-23T16:58:42.141Z,18.72
2018-05-23T17:01:14.851Z,18.94
2018-05-23T17:03:47.537Z,19.08
2018-05-23T17:06:19.691Z,19.24
2018-05-23T17:08:52.618Z,18.95
2018-05-23T17:11:24.772Z,19.01
2018-05-23T17:14:00.783Z,18.53
2018-05-23T17:16:37.213Z,18.70
2018-05-23T17:19:12.031Z,18.57
2018-05-23T17:21:44.840Z,18.43
2018-05-23T17:24:17.343Z,18.18
2018-05-23T17:26:49.726Z,18.43
2018-05-23T17:29:22.905Z,18.30
2018-05-23T17:31:54.940Z,18.12
2018-05-23T17:34:29.422Z,18.30
2018-05-23T17:37:01.951Z,18.12
2018-05-23T17:39:34.906Z,18.01
2018-05-23T17:42:09.849Z,18.07
2018-05-23T17:44:46.342Z,18.17
2018-05-23T17:47:19.289Z,18.09
2018-05-23T17:49:52.865Z,18.08
2018-05-23T17:52:25.799Z,17.92
2018-05-23T17:54:58.535Z,17.89
2018-05-23T17:57:32.135Z,18.18
2018-05-23T18:00:05.657Z,18.16
2018-05-23T18:02:39.186Z,17.97
2018-05-23T18:05:14.431Z,18.08
2018-05-23T18:07:47.325Z,18.40
2018-05-23T18:10:21.110Z,18.56
2018-05-23T18:12:53.981Z,18.48
2018-05-23T18:15:29.719Z,18.54
2018-05-23T18:18:05.621Z,18.58
2018-05-23T18:20:41.935Z,18.09
2018-05-23T18:23:13.767Z,18.21
2018-05-23T18:25:51.817Z,18.09
2018-05-23T18:28:24.846Z,18.29
2018-05-23T18:30:57.205Z,18.43
2018-05-23T18:33:31.611Z,18.52
2018-05-23T18:36:04.553Z,18.59
2018-05-23T18:38:36.563Z,18.52
2018-05-23T18:41:09.403Z,18.39
2018-05-23T18:43:41.987Z,18.53
2018-05-23T18:46:16.329Z,18.43
2018-05-23T18:48:52.406Z,18.22
2018-05-23T18:51:27.111Z,18.42
2018-05-23T18:54:01.534Z,18.41
2018-05-23T18:56:34.707Z,18.24
2018-05-23T18:59:09.016Z,18.09
2018-05-23T19:01:42.030Z,18.16
2018-05-23T19:04:15.350Z,18.31
2018-05-23T19:06:47.983Z,18.37
2018-05-23T19:09:23.210Z,18.43
2018-05-23T19:11:56.821Z,18.39
2018-05-23T19:14:28.989Z,18.37
2018-05-23T19:17:03.462Z,18.36
2018-05-23T19:19:36.981Z,18.38
2018-05-23T19:22:11.006Z,18.45
2018-05-23T19:24:45.520Z,18.37
2018-05-23T19:27:20.519Z,18.32
2018-05-23T19:29:56.039Z,17.92
2018-05-23T19:32:29.436Z,17.51
2018-05-23T19:35:06.489Z,17.50
2018-05-23T19:37:39.797Z,17.60
2018-05-23T19:40:12.972Z,17.83
2018-05-23T19:42:47.667Z,17.85
2018-05-23T19:45:22.406Z,17.77
2018-05-23T19:47:56.313Z,17.94
2018-05-23T19:50:33.894Z,17.33
2018-05-23T19:53:11.226Z,17.49
2018-05-23T19:55:45.934Z,17.84
2018-05-23T19:58:19.901Z,17.92
2018-05-23T20:00:57.635Z,17.92
2018-05-23T20:03:32.869Z,17.62
2018-05-23T20:06:07.491Z,17.96
2018-05-23T20:08:42.371Z,17.82
2018-05-23T20:11:14.468Z,17.99
2018-05-23T20:13:48.223Z,18.10
2018-05-23T20:16:28.141Z,18.05
2018-05-23T20:19:03.097Z,17.89
2018-05-23T20:21:36.952Z,17.76
2018-05-23T20:24:10.252Z,17.54
2018-05-23T20:26:43.743Z,17.74
2018-05-23T20:29:20.970Z,17.35
2018-05-23T20:31:55.520Z,17.49
2018-05-23T20:34:28.428Z,17.65
2018-05-23T20:37:01.654Z,17.78
2018-05-23T20:39:35.494Z,17.69
2018-05-23T20:42:08.228Z,17.65
2018-05-23T20:44:45.684Z,17.45
2018-05-23T20:47:19.543Z,17.56
2018-05-23T20:49:54.118Z,17.47
2018-05-23T20:52:27.446Z,17.82
2018-05-23T20:54:59.186Z,17.79
2018-05-23T20:57:30.367Z,17.85
2018-05-23T21:00:01.565Z,17.95
2018-05-23T21:02:33.033Z,17.74
2018-05-23T21:05:04.513Z,17.93
2018-05-23T21:07:35.812Z,17.86
2018-05-23T21:10:07.106Z,17.87
2018-05-23T21:12:38.310Z,18.01
2018-05-23T21:15:09.354Z,17.97
2018-05-23T21:17:40.800Z,17.99
2018-05-23T21:20:12.053Z,18.04
2018-05-23T21:22:45.330Z,17.93
2018-05-23T21:25:16.693Z,17.95
2018-05-23T21:27:49.639Z,18.07
2018-05-23T21:30:20.887Z,18.05
2018-05-23T21:32:52.030Z,17.97
2018-05-23T21:35:24.261Z,17.94
2018-05-23T21:37:55.558Z,17.91
2018-05-23T21:40:27.362Z,17.82
2018-05-23T21:42:58.552Z,17.79
2018-05-23T21:45:29.931Z,17.79
2018-05-23T21:48:01.218Z,17.79
2018-05-23T21:50:32.392Z,17.84
2018-05-23T21:53:03.740Z,17.91
2018-05-23T21:55:34.921Z,17.78
2018-05-23T21:58:06.324Z,17.76
2018-05-23T22:00:37.449Z,17.49
2018-05-23T22:03:09.506Z,17.39
2018-05-23T22:05:41.013Z,17.38
2018-05-23T22:08:12.122Z,17.44
2018-05-23T22:10:43.528Z,17.61
2018-05-23T22:13:14.650Z,17.51
2018-05-23T22:15:46.239Z,17.46
2018-05-23T22:18:17.504Z,17.27
2018-05-23T22:20:48.736Z,17.18
2018-05-23T22:23:20.007Z,17.30
2018-05-23T22:25:51.421Z,16.96
2018-05-23T22:28:22.724Z,17.30
2018-05-23T22:30:54.114Z,17.39
2018-05-23T22:33:25.444Z,17.39
2018-05-23T22:35:57.058Z,17.48
2018-05-23T22:38:28.321Z,17.54
2018-05-23T22:40:59.672Z,17.64
2018-05-23T22:43:31.529Z,17.58
2018-05-23T22:46:02.933Z,17.54
2018-05-23T22:48:34.286Z,17.60
2018-05-23T22:51:05.688Z,17.40
2018-05-23T22:53:36.945Z,17.53
2018-05-23T22:56:08.195Z,17.59
2018-05-23T22:58:39.534Z,17.63
2018-05-23T23:01:10.669Z,17.10
2018-05-23T23:03:42.064Z,17.46
2018-05-23T23:06:13.478Z,17.47
2018-05-23T23:08:44.724Z,17.50
2018-05-23T23:11:15.960Z,17.49
2018-05-23T23:13:48.333Z,17.41
2018-05-23T23:16:19.576Z,17.57
2018-05-23T23:18:50.836Z,17.59
2018-05-23T23:21:22.104Z,17.61
2018-05-23T23:23:53.397Z,17.57
2018-05-23T23:26:25.889Z,17.52
2018-05-23T23:28:57.155Z,17.48
2018-05-23T23:31:28.275Z,17.47
2018-05-23T23:33:59.549Z,17.48
2018-05-23T23:36:31.880Z,17.53
2018-05-23T23:39:03.652Z,17.51
2018-05-23T23:41:35.054Z,17.49
2018-05-23T23:44:06.145Z,17.49
2018-05-23T23:46:37.409Z,17.46
2018-05-23T23:49:08.832Z,17.35
2018-05-23T23:51:39.992Z,17.32
2018-05-23T23:54:11.116Z,17.39
2018-05-23T23:56:42.629Z,17.13
2018-05-23T23:59:13.804Z,17.24
